Strona główna
METAR-TAF:

METAR-TAF

Lotnisko :

Port lotniczy Tulon-Hyères

Tulon, Francja

Szerokość geograficzna: 43-06N, Długość geograficzna: 006-09E, wysokość: 3 m

Aktualna obserwacja pogody

Raport powstał 33 minut temu, godzina 00:30 UTC
Wiatr 2 kt od północno-północny wschód
Temperatura 22°C
Wilgotność 78%
Ciśnienie 1016 hPa
Widzialność 10 km lub więcej
Brak chmur poniżej 1500 m i brak chmur cumulonimbus

METAR: LFTH 240030Z AUTO 02002KT CAVOK 22/18 Q1016 NOSIG

czas: 03:03 (01:03 UTC)

Prognoza

Raport powstał 5 godziny i 3 minut temu, godzina 20:00 UTC
Prognoza ważna od 23 godzina 21 UTC do 24 godzina 21 UTC
Wiatr 3 kt z kierunków zmiennych
Widzialność 10 km lub więcej
Brak chmur poniżej 1500 m i brak chmur cumulonimbus
Stopniowe zmiany
od 24 godzina 10 UTC do 24 godzina 12 UTC
Wiatr 10 kt od południowy zachód
Przejściowo
od 24 godzina 19 UTC do 24 godzina 21 UTC
Wiatr 3 kt z kierunków zmiennych

TAF: LFTH 232000Z 2321/2421 VRB03KT CAVOK BECMG 2410/2412 23010KT TEMPO 2419/2421 VRB03KT

Obserwacja i prognoza pogody dla ponad 4000 lotnisk (raport METAR i TAF).

Dostępne stacje oznaczono żółtymi i czerwonymi punktami na mapie.

Najedź kursorem aby zobaczyć nazwę stacji.

Kliknij aby zobaczyć obserwacje i prognozy pogody.

Aby zmienić mapę: kliknij na zielony przycisk z czarnym krzyżykiem, aby powiększyć; na zielony przycisk z myślnikiem, aby pomniejszyć; na zielone strzałki, aby przejść do map sąsiednich.


METAR-TAF: